createdAt,value
2023-02-19T00:02:02.422Z,100084.44
2023-02-19T00:04:31.840Z,100075.16
2023-02-19T00:07:01.531Z,100070.81
2023-02-19T00:09:28.269Z,100065.63
2023-02-19T00:11:57.518Z,100069.13
2023-02-19T00:14:27.229Z,100070.75
2023-02-19T00:16:53.913Z,100067.41
2023-02-19T00:23:06.028Z,100053.47
2023-02-19T00:25:38.621Z,100058.56
2023-02-19T00:28:05.674Z,100064.50
2023-02-19T00:30:35.659Z,100068.69
2023-02-19T00:33:04.656Z,100066.06
2023-02-19T00:35:37.058Z,100063.53
2023-02-19T00:38:04.926Z,100056.78
2023-02-19T00:40:33.123Z,100054.09
2023-02-19T00:43:02.238Z,100051.72
2023-02-19T00:45:31.786Z,100039.69
2023-02-19T00:48:00.824Z,100038.63
2023-02-19T00:50:27.371Z,100048.28
2023-02-19T00:52:59.639Z,100049.78
2023-02-19T00:55:28.703Z,100047.09
2023-02-19T00:57:55.308Z,100043.03
2023-02-19T01:00:22.050Z,100059.25
2023-02-19T01:02:51.463Z,100046.50
2023-02-19T01:05:20.271Z,100044.78
2023-02-19T01:07:46.878Z,100044.91
2023-02-19T01:10:13.450Z,100046.66
2023-02-19T01:12:40.121Z,100040.69
2023-02-19T01:15:09.584Z,100049.91
2023-02-19T01:17:38.930Z,100044.84
2023-02-19T01:20:05.927Z,100042.16
2023-02-19T01:22:32.780Z,100036.16
2023-02-19T01:24:59.485Z,100043.91
2023-02-19T01:27:28.359Z,100041.25
2023-02-19T01:29:55.008Z,100035.34
2023-02-19T01:32:24.061Z,100048.31
2023-02-19T01:34:50.658Z,100043.16
2023-02-19T01:37:17.381Z,100049.91
2023-02-19T01:39:44.071Z,100055.19
2023-02-19T01:42:19.033Z,100053.41
2023-02-19T01:44:48.146Z,100047.41
2023-02-19T01:47:21.769Z,100043.78
2023-02-19T01:49:58.660Z,100037.97
2023-02-19T01:52:34.067Z,100034.38
2023-02-19T01:55:09.909Z,100036.97
2023-02-19T01:57:42.566Z,100037.03
2023-02-19T02:00:14.472Z,100036.19
2023-02-19T02:02:45.931Z,100034.31
2023-02-19T02:05:53.801Z,100032.50
2023-02-19T02:08:42.458Z,100028.22
2023-02-19T02:11:11.676Z,100028.22
2023-02-19T02:13:40.496Z,100045.19
2023-02-19T02:16:28.263Z,100046.97
2023-02-19T02:19:10.034Z,100050.28
2023-02-19T02:22:04.728Z,100029.56
2023-02-19T02:24:51.991Z,100040.75
2023-02-19T02:27:41.032Z,100030.44
2023-02-19T02:30:34.849Z,100027.97
2023-02-19T02:33:26.678Z,100021.25
2023-02-19T02:35:58.308Z,100015.97
2023-02-19T02:38:31.078Z,100021.09
2023-02-19T02:41:00.515Z,100020.13
2023-02-19T02:43:27.397Z,100017.72
2023-02-19T02:45:57.370Z,100018.69
2023-02-19T02:48:44.990Z,100025.22
2023-02-19T02:51:14.663Z,100032.91
2023-02-19T02:54:14.175Z,100021.09
2023-02-19T02:56:45.298Z,100020.06
2023-02-19T02:59:14.805Z,100020.19
2023-02-19T03:02:11.877Z,100033.16
2023-02-19T03:05:11.396Z,100026.16
2023-02-19T03:08:10.104Z,100026.81
2023-02-19T03:10:43.320Z,100013.97
2023-02-19T03:13:40.808Z,100015.97
2023-02-19T03:16:51.434Z,100025.03
2023-02-19T03:19:22.728Z,100026.91
2023-02-19T03:22:09.984Z,100021.94
2023-02-19T03:25:04.349Z,100026.22
2023-02-19T03:27:33.951Z,100037.16
2023-02-19T03:30:09.750Z,100030.03
2023-02-19T03:33:08.337Z,100038.59
2023-02-19T03:36:00.367Z,100022.28
2023-02-19T03:38:37.340Z,100026.59
2023-02-19T03:41:12.382Z,100021.47
2023-02-19T03:43:52.460Z,100031.72
2023-02-19T03:46:37.051Z,100039.44
2023-02-19T03:49:12.894Z,100031.63
2023-02-19T03:51:55.378Z,100025.34
2023-02-19T03:54:40.269Z,100025.25
2023-02-19T03:57:23.395Z,100026.72
2023-02-19T04:00:04.313Z,100026.81
2023-02-19T04:02:41.451Z,100022.91
2023-02-19T04:05:14.621Z,100022.28
2023-02-19T04:07:46.614Z,100025.56
2023-02-19T04:10:26.144Z,100028.16
2023-02-19T04:13:04.616Z,100042.81
2023-02-19T04:15:34.397Z,100044.75
2023-02-19T04:18:09.314Z,100035.47
2023-02-19T04:20:42.769Z,100041.72
2023-02-19T04:23:09.683Z,100044.38
2023-02-19T04:25:45.622Z,100038.91
2023-02-19T04:28:19.562Z,100038.91
2023-02-19T04:30:47.034Z,100043.34
2023-02-19T04:33:13.920Z,100035.63
2023-02-19T04:35:43.112Z,100046.69
2023-02-19T04:38:12.352Z,100044.22
2023-02-19T04:40:40.249Z,100036.38
2023-02-19T04:43:11.671Z,100035.41
2023-02-19T04:45:40.768Z,100036.09
2023-02-19T04:48:07.270Z,100042.78
2023-02-19T04:50:33.878Z,100051.00
2023-02-19T04:53:05.480Z,100050.59
2023-02-19T04:55:32.450Z,100049.75
2023-02-19T04:58:04.296Z,100041.41
2023-02-19T05:00:31.491Z,100039.56
2023-02-19T05:03:01.173Z,100038.72
2023-02-19T05:05:30.638Z,100026.81
2023-02-19T05:07:59.905Z,100029.72
2023-02-19T05:10:28.745Z,100036.72
2023-02-19T05:13:00.520Z,100034.72
2023-02-19T05:15:29.553Z,100026.06
2023-02-19T05:17:56.474Z,100034.69
2023-02-19T05:20:23.166Z,100038.47
2023-02-19T05:22:52.154Z,100047.22
2023-02-19T05:25:18.816Z,100040.38
2023-02-19T05:27:47.780Z,100037.00
2023-02-19T05:30:14.506Z,100034.56
2023-02-19T05:32:44.019Z,100036.38
2023-02-19T05:35:13.655Z,100020.66
2023-02-19T05:37:43.317Z,100024.94
2023-02-19T05:40:10.307Z,100016.41
2023-02-19T05:42:39.192Z,100019.69
2023-02-19T05:45:08.898Z,100022.28
2023-02-19T05:47:35.493Z,100020.56
2023-02-19T05:50:04.553Z,100023.91
2023-02-19T05:52:31.027Z,100042.63
2023-02-19T05:55:00.812Z,100043.50
2023-02-19T05:57:32.475Z,100034.88
2023-02-19T05:59:59.107Z,100044.97
2023-02-19T06:02:34.577Z,100057.50
2023-02-19T06:05:01.280Z,100042.81
2023-02-19T06:07:30.230Z,100044.28
2023-02-19T06:09:56.987Z,100047.94
2023-02-19T06:12:26.064Z,100039.50
2023-02-19T06:14:52.641Z,100042.38
2023-02-19T06:17:21.360Z,100036.09
2023-02-19T06:19:48.162Z,100039.50
2023-02-19T06:22:16.181Z,100028.63
2023-02-19T06:24:43.231Z,100030.03
2023-02-19T06:27:10.140Z,100023.03
2023-02-19T06:29:39.475Z,100019.88
2023-02-19T06:32:09.310Z,100021.53
2023-02-19T06:34:36.527Z,100023.34
2023-02-19T06:37:08.070Z,100020.69
2023-02-19T06:39:37.055Z,100021.66
2023-02-19T06:42:03.863Z,100014.72
2023-02-19T06:44:32.942Z,100008.41
2023-02-19T06:47:02.043Z,100008.16
2023-02-19T06:49:31.267Z,100012.41
2023-02-19T06:52:02.323Z,100012.44
2023-02-19T06:54:31.554Z,100020.69
2023-02-19T06:57:00.665Z,100020.44
2023-02-19T06:59:27.267Z,100018.31
2023-02-19T07:01:54.022Z,100017.28
2023-02-19T07:04:20.671Z,100016.47
2023-02-19T07:06:47.243Z,100022.16
2023-02-19T07:09:14.047Z,100018.78
2023-02-19T07:11:43.534Z,100027.47
2023-02-19T07:14:17.989Z,100031.63
2023-02-19T07:16:47.452Z,100026.47
2023-02-19T07:19:16.810Z,100020.88
2023-02-19T07:21:48.554Z,100027.81
2023-02-19T07:24:21.721Z,100020.56
2023-02-19T07:26:50.806Z,100023.25
2023-02-19T07:29:17.382Z,100022.28
2023-02-19T07:31:44.316Z,100013.84
2023-02-19T07:34:11.034Z,100019.00
2023-02-19T07:36:40.588Z,100005.50
2023-02-19T07:39:15.854Z,100008.94
2023-02-19T07:41:45.025Z,100005.03
2023-02-19T07:44:13.768Z,99993.09
2023-02-19T07:46:40.386Z,100005.88
2023-02-19T07:49:07.328Z,100007.00
2023-02-19T07:51:36.157Z,100006.78
2023-02-19T07:54:05.506Z,100013.63
2023-02-19T07:56:34.281Z,100020.94
2023-02-19T07:59:03.592Z,100014.25
2023-02-19T08:02:06.077Z,100020.41
2023-02-19T08:04:36.095Z,100026.81
2023-02-19T08:07:05.995Z,100032.00
2023-02-19T08:09:33.888Z,100038.25
2023-02-19T08:12:32.215Z,100039.06
2023-02-19T08:15:00.986Z,100048.16
2023-02-19T08:17:27.770Z,100046.00
2023-02-19T08:19:54.482Z,100051.22
2023-02-19T08:22:23.805Z,100047.44
2023-02-19T08:24:52.721Z,100045.00
2023-02-19T08:27:21.710Z,100060.91
2023-02-19T08:29:48.306Z,100055.63
2023-02-19T08:32:14.957Z,100045.78
2023-02-19T08:34:41.649Z,100043.31
2023-02-19T08:37:08.212Z,100033.06
2023-02-19T08:39:37.357Z,100038.56
2023-02-19T08:42:03.989Z,100025.50
2023-02-19T08:44:30.533Z,100023.94
2023-02-19T08:46:57.225Z,100032.31
2023-02-19T08:49:27.172Z,100038.13
2023-02-19T08:51:56.331Z,100033.50
2023-02-19T08:54:25.411Z,100035.00
2023-02-19T08:56:54.618Z,100024.81
2023-02-19T08:59:21.280Z,100025.63
2023-02-19T09:01:50.082Z,100030.81
2023-02-19T09:04:16.700Z,100023.91
2023-02-19T09:06:51.111Z,100031.88
2023-02-19T09:09:18.063Z,100039.09
2023-02-19T09:11:44.852Z,100047.69
2023-02-19T09:14:13.769Z,100033.16
2023-02-19T09:16:42.901Z,100029.88
2023-02-19T09:19:09.764Z,100035.69
2023-02-19T09:21:38.441Z,100033.28
2023-02-19T09:24:08.831Z,100037.38
2023-02-19T09:26:38.745Z,100036.28
2023-02-19T09:29:05.514Z,100032.69
2023-02-19T09:31:37.447Z,100028.53
2023-02-19T09:34:05.845Z,100020.78
2023-02-19T09:36:35.320Z,100017.13
2023-02-19T09:39:06.708Z,100020.00
2023-02-19T09:41:37.940Z,100019.94
2023-02-19T09:44:09.781Z,100016.75
2023-02-19T09:46:44.104Z,100021.31
2023-02-19T09:49:15.929Z,100017.19
2023-02-19T09:51:54.027Z,100013.28
2023-02-19T09:54:26.409Z,100015.84
2023-02-19T09:56:59.967Z,100008.44
2023-02-19T09:59:44.846Z,100019.47
2023-02-19T10:02:31.607Z,100008.59
2023-02-19T10:05:01.803Z,100010.31
2023-02-19T10:07:50.375Z,99995.34
2023-02-19T10:10:17.952Z,99992.88
2023-02-19T10:12:51.189Z,99981.75
2023-02-19T10:15:28.059Z,99969.00
2023-02-19T10:17:57.541Z,99966.72
2023-02-19T10:20:30.208Z,99967.22
2023-02-19T10:23:09.312Z,99964.72
2023-02-19T10:25:41.509Z,99958.78
2023-02-19T10:28:15.169Z,99957.28
2023-02-19T10:30:41.887Z,99948.03
2023-02-19T10:33:15.253Z,99949.97
2023-02-19T10:35:56.228Z,99938.09
2023-02-19T10:38:46.968Z,99927.88
2023-02-19T10:41:21.388Z,99921.06
2023-02-19T10:43:56.390Z,99921.06
2023-02-19T10:46:35.930Z,99911.59
2023-02-19T10:49:12.917Z,99895.28
2023-02-19T10:51:41.480Z,99894.47
2023-02-19T10:54:18.426Z,99891.09
2023-02-19T10:56:47.314Z,99885.16
2023-02-19T10:59:30.076Z,99898.19
2023-02-19T11:02:02.571Z,99873.34
2023-02-19T11:04:34.226Z,99876.88
2023-02-19T11:07:19.635Z,99873.47
2023-02-19T11:09:53.923Z,99867.50
2023-02-19T11:12:29.589Z,99863.19
2023-02-19T11:15:00.638Z,99859.78
2023-02-19T11:17:31.402Z,99854.63
2023-02-19T11:20:07.619Z,99868.44
2023-02-19T11:22:37.517Z,99870.16
2023-02-19T11:25:09.994Z,99865.84
2023-02-19T11:28:08.212Z,99863.22
2023-02-19T11:30:45.869Z,99851.19
2023-02-19T11:33:27.559Z,99851.19
2023-02-19T11:36:17.986Z,99838.25
2023-02-19T11:38:47.298Z,99831.38
2023-02-19T11:41:35.408Z,99809.81
2023-02-19T11:44:12.499Z,99808.94
2023-02-19T11:46:42.175Z,99821.91
2023-02-19T11:49:25.289Z,99803.78
2023-02-19T11:52:12.067Z,99806.38
2023-02-19T11:54:57.906Z,99808.06
2023-02-19T11:57:27.378Z,99795.13
2023-02-19T12:00:12.676Z,99801.16
2023-02-19T12:02:54.275Z,99783.09
2023-02-19T12:05:35.488Z,99777.88
2023-02-19T12:08:13.921Z,99771.84
2023-02-19T12:11:05.535Z,99783.88
2023-02-19T12:14:07.804Z,99763.22
2023-02-19T12:16:39.583Z,99762.28
2023-02-19T12:19:37.649Z,99771.00
2023-02-19T12:22:19.173Z,99762.38
2023-02-19T12:25:30.645Z,99770.94
2023-02-19T12:28:29.206Z,99758.00
2023-02-19T12:31:13.930Z,99764.00
2023-02-19T12:34:51.728Z,99764.84
2023-02-19T12:37:46.300Z,99763.19
2023-02-19T12:40:22.116Z,99766.69
2023-02-19T12:43:07.813Z,99774.41
2023-02-19T12:45:46.860Z,99764.03
2023-02-19T12:48:34.196Z,99760.59
2023-02-19T12:51:25.615Z,99782.94
2023-02-19T12:54:13.847Z,99801.94
2023-02-19T12:56:45.812Z,99814.03
2023-02-19T12:59:23.798Z,99826.97
2023-02-19T13:02:26.930Z,99820.16
2023-02-19T13:05:11.266Z,99802.72
2023-02-19T13:07:59.829Z,99808.25
2023-02-19T13:10:37.733Z,99794.66
2023-02-19T13:13:12.540Z,99778.34
2023-02-19T13:15:46.465Z,99778.53
2023-02-19T13:18:19.017Z,99757.94
2023-02-19T13:20:51.890Z,99760.56
2023-02-19T13:23:48.704Z,99746.88
2023-02-19T13:26:21.323Z,99747.81
2023-02-19T13:29:06.428Z,99749.53
2023-02-19T13:31:42.245Z,99755.53
2023-02-19T13:34:24.303Z,99745.19
2023-02-19T13:36:51.354Z,99745.19
2023-02-19T13:39:22.648Z,99735.72
2023-02-19T13:41:55.077Z,99757.28
2023-02-19T13:44:33.605Z,99759.88
2023-02-19T13:47:06.479Z,99766.72
2023-02-19T13:49:34.010Z,99783.97
2023-02-19T13:52:22.240Z,99791.75
2023-02-19T13:54:48.860Z,99803.78
2023-02-19T13:57:28.291Z,99817.41
2023-02-19T13:59:58.581Z,99856.53
2023-02-19T14:02:32.359Z,99895.88
2023-02-19T14:05:03.628Z,99878.59
2023-02-19T14:07:51.205Z,99887.94
2023-02-19T14:10:36.651Z,99882.88
2023-02-19T14:13:06.117Z,99875.22
2023-02-19T14:15:52.551Z,99890.78
2023-02-19T14:18:45.485Z,99904.69
2023-02-19T14:21:43.847Z,99908.03
2023-02-19T14:24:17.385Z,99905.47
2023-02-19T14:26:47.429Z,99900.19
2023-02-19T14:29:17.722Z,99907.38
2023-02-19T14:31:46.117Z,99922.19
2023-02-19T14:34:22.731Z,99922.09
2023-02-19T14:37:02.239Z,99936.03
2023-02-19T14:39:35.204Z,99930.53
2023-02-19T14:42:17.864Z,99934.06
2023-02-19T14:44:52.546Z,99935.34
2023-02-19T14:47:22.755Z,99929.53
2023-02-19T14:49:55.138Z,99930.50
2023-02-19T14:52:25.118Z,99926.56
2023-02-19T14:55:00.312Z,99926.09
2023-02-19T14:57:43.470Z,99918.28
2023-02-19T15:00:22.409Z,99915.19
2023-02-19T15:02:59.898Z,99924.63
2023-02-19T15:05:40.272Z,99928.72
2023-02-19T15:08:12.038Z,99944.38
2023-02-19T15:10:42.163Z,99955.34
2023-02-19T15:13:17.800Z,99950.19
2023-02-19T15:15:49.948Z,99968.31
2023-02-19T15:18:30.011Z,99975.25
2023-02-19T15:21:02.893Z,99970.91
2023-02-19T15:23:31.481Z,99972.75
2023-02-19T15:25:59.215Z,99969.66
2023-02-19T15:28:28.703Z,99968.91
2023-02-19T15:30:58.329Z,99974.94
2023-02-19T15:33:32.320Z,99962.19
2023-02-19T15:36:03.525Z,99968.41
2023-02-19T15:38:30.999Z,99980.44
2023-02-19T15:40:58.805Z,99971.88
2023-02-19T15:43:33.887Z,99980.00
2023-02-19T15:46:12.065Z,99967.06
2023-02-19T15:48:47.724Z,99978.91
2023-02-19T15:51:24.090Z,99971.22
2023-02-19T15:53:59.022Z,99967.75
2023-02-19T15:56:32.550Z,99967.84
2023-02-19T15:59:21.584Z,99967.63
2023-02-19T16:01:48.974Z,99971.88
2023-02-19T16:04:23.058Z,99972.72
2023-02-19T16:06:55.585Z,99981.97
2023-02-19T16:09:31.318Z,99983.22
2023-02-19T16:12:03.041Z,99996.94
2023-02-19T16:14:34.516Z,99997.19
2023-02-19T16:17:28.161Z,99993.16
2023-02-19T16:20:00.885Z,99997.28
2023-02-19T16:22:34.776Z,100004.75
2023-02-19T16:25:04.914Z,100011.16
2023-02-19T16:27:37.011Z,100016.41
2023-02-19T16:30:07.799Z,100017.09
2023-02-19T16:32:34.673Z,100016.28
2023-02-19T16:35:01.339Z,100025.50
2023-02-19T16:37:40.834Z,100031.59
2023-02-19T16:40:11.115Z,100040.06
2023-02-19T16:43:13.300Z,100054.09
2023-02-19T16:45:50.531Z,100061.47
2023-02-19T16:48:20.303Z,100058.22
2023-02-19T16:50:46.990Z,100065.66
2023-02-19T16:53:24.790Z,100048.34
2023-02-19T16:55:52.539Z,100049.22
2023-02-19T16:58:21.545Z,100055.59
2023-02-19T17:00:48.166Z,100052.28
2023-02-19T17:03:22.570Z,100063.34
2023-02-19T17:05:54.489Z,100060.66
2023-02-19T17:08:33.888Z,100065.88
2023-02-19T17:11:24.750Z,100064.25
2023-02-19T17:13:51.512Z,100073.38
2023-02-19T17:16:21.849Z,100081.63
2023-02-19T17:18:51.879Z,100067.66
2023-02-19T17:21:21.093Z,100076.50
2023-02-19T17:23:47.546Z,100085.69
2023-02-19T17:26:15.532Z,100067.00
2023-02-19T17:28:42.157Z,100076.63
2023-02-19T17:31:11.319Z,100073.81
2023-02-19T17:33:38.896Z,100084.94
2023-02-19T17:36:06.148Z,100082.69
2023-02-19T17:38:34.801Z,100077.31
2023-02-19T17:41:03.982Z,100079.94
2023-02-19T17:43:30.558Z,100093.81
2023-02-19T17:45:57.359Z,100090.38
2023-02-19T17:48:24.419Z,100105.25
2023-02-19T17:50:52.382Z,100106.13
2023-02-19T17:53:21.236Z,100116.59
2023-02-19T17:55:47.862Z,100105.88
2023-02-19T17:58:17.209Z,100120.03
2023-02-19T18:00:46.259Z,100122.41
2023-02-19T18:03:15.524Z,100115.53
2023-02-19T18:05:44.808Z,100109.47
2023-02-19T18:08:11.946Z,100118.31
2023-02-19T18:10:38.623Z,100104.56
2023-02-19T18:13:07.558Z,100102.00
2023-02-19T18:15:36.634Z,100114.72
2023-02-19T18:18:09.883Z,100118.31
2023-02-19T18:20:41.597Z,100123.25
2023-02-19T18:23:10.785Z,100130.91
2023-02-19T18:25:37.449Z,100149.91
2023-02-19T18:28:06.558Z,100152.22
2023-02-19T18:30:35.469Z,100172.53
2023-02-19T18:33:07.468Z,100171.22
2023-02-19T18:35:34.923Z,100188.34
2023-02-19T18:38:03.782Z,100180.44
2023-02-19T18:40:32.870Z,100187.25
2023-02-19T18:43:01.798Z,100196.44
2023-02-19T18:45:29.829Z,100196.88
2023-02-19T18:47:59.205Z,100190.00
2023-02-19T18:50:28.771Z,100211.28
2023-02-19T18:53:00.270Z,100213.91
2023-02-19T18:55:29.216Z,100237.41
2023-02-19T18:57:58.560Z,100235.19
2023-02-19T19:04:17.739Z,100239.63
2023-02-19T19:06:46.841Z,100254.75
2023-02-19T19:09:15.704Z,100262.72
2023-02-19T19:11:44.551Z,100269.09
2023-02-19T19:14:11.374Z,100264.09
2023-02-19T19:16:43.195Z,100272.13
2023-02-19T19:19:11.047Z,100259.28
2023-02-19T19:21:37.942Z,100266.84
2023-02-19T19:24:05.008Z,100275.59
2023-02-19T19:26:32.152Z,100269.94
2023-02-19T19:28:58.927Z,100279.13
2023-02-19T19:31:26.367Z,100272.66
2023-02-19T19:33:55.656Z,100271.66
2023-02-19T19:36:25.747Z,100292.63
2023-02-19T19:38:52.580Z,100283.13
2023-02-19T19:41:20.336Z,100284.81
2023-02-19T19:43:51.965Z,100285.50
2023-02-19T19:46:19.957Z,100292.78
2023-02-19T19:48:48.037Z,100293.81
2023-02-19T19:51:14.941Z,100298.78
2023-02-19T19:53:47.426Z,100300.59
2023-02-19T19:56:14.652Z,100307.13
2023-02-19T19:58:45.817Z,100312.81
2023-02-19T20:01:12.826Z,100313.44
2023-02-19T20:03:42.208Z,100311.63
2023-02-19T20:06:08.665Z,100312.06
2023-02-19T20:08:35.820Z,100316.81
2023-02-19T20:11:03.385Z,100323.06
2023-02-19T20:13:31.112Z,100331.75
2023-02-19T20:16:00.129Z,100343.94
2023-02-19T20:18:27.625Z,100335.91
2023-02-19T20:20:54.217Z,100353.25
2023-02-19T20:23:20.889Z,100356.94
2023-02-19T20:25:49.967Z,100362.16
2023-02-19T20:28:17.017Z,100404.66
2023-02-19T20:30:43.899Z,100377.47
2023-02-19T20:33:10.770Z,100378.16
2023-02-19T20:35:40.722Z,100395.06
2023-02-19T20:38:09.648Z,100389.53
2023-02-19T20:40:36.316Z,100414.00
2023-02-19T20:43:05.270Z,100394.09
2023-02-19T20:45:34.045Z,100400.56
2023-02-19T20:48:01.402Z,100421.84
2023-02-19T20:50:30.359Z,100407.31
2023-02-19T20:52:59.711Z,100428.06
2023-02-19T20:55:29.774Z,100436.88
2023-02-19T20:57:58.879Z,100442.50
2023-02-19T21:00:28.103Z,100450.41
2023-02-19T21:02:57.034Z,100453.97
2023-02-19T21:05:26.299Z,100451.28
2023-02-19T21:07:55.634Z,100459.72
2023-02-19T21:10:27.128Z,100462.75
2023-02-19T21:12:54.530Z,100454.03
2023-02-19T21:15:23.900Z,100470.97
2023-02-19T21:17:50.567Z,100459.22
2023-02-19T21:20:22.798Z,100457.81
2023-02-19T21:22:51.636Z,100441.16
2023-02-19T21:25:20.941Z,100464.22
2023-02-19T21:27:47.526Z,100458.00
2023-02-19T21:30:16.501Z,100448.53
2023-02-19T21:32:43.191Z,100464.91
2023-02-19T21:35:10.247Z,100465.88
2023-02-19T21:37:41.984Z,100465.94
2023-02-19T21:40:11.806Z,100462.81
2023-02-19T21:42:38.563Z,100463.63
2023-02-19T21:45:05.762Z,100479.00
2023-02-19T21:47:32.472Z,100473.03
2023-02-19T21:50:01.425Z,100468.28
2023-02-19T21:52:31.522Z,100480.84
2023-02-19T21:54:58.542Z,100483.22
2023-02-19T21:57:27.327Z,100490.97
2023-02-19T21:59:56.809Z,100490.81
2023-02-19T22:02:25.766Z,100500.78
2023-02-19T22:04:53.734Z,100489.81
2023-02-19T22:07:30.708Z,100492.44
2023-02-19T22:09:59.676Z,100501.41
2023-02-19T22:12:28.646Z,100497.69
2023-02-19T22:14:57.646Z,100499.75
2023-02-19T22:17:24.321Z,100507.13
2023-02-19T22:19:50.941Z,100512.28
2023-02-19T22:22:17.569Z,100519.50
2023-02-19T22:24:44.468Z,100524.50
2023-02-19T22:27:13.590Z,100526.69
2023-02-19T22:29:40.320Z,100522.63
2023-02-19T22:32:07.367Z,100529.59
2023-02-19T22:34:43.189Z,100523.34
2023-02-19T22:37:13.051Z,100525.13
2023-02-19T22:39:39.831Z,100502.97
2023-02-19T22:42:06.640Z,100526.53
2023-02-19T22:44:34.500Z,100527.13
2023-02-19T22:47:01.114Z,100539.78
2023-02-19T22:49:27.685Z,100531.94
2023-02-19T22:52:03.574Z,100533.94
2023-02-19T22:54:32.408Z,100532.88
2023-02-19T22:57:01.389Z,100536.13
2023-02-19T22:59:28.096Z,100531.34
2023-02-19T23:01:55.100Z,100547.28
2023-02-19T23:04:25.282Z,100548.63
2023-02-19T23:06:54.733Z,100541.22
2023-02-19T23:09:28.234Z,100542.34
2023-02-19T23:12:07.240Z,100542.81
2023-02-19T23:14:38.747Z,100532.50
2023-02-19T23:17:08.100Z,100561.91
2023-02-19T23:19:39.576Z,100561.06
2023-02-19T23:22:08.710Z,100573.78
2023-02-19T23:24:35.320Z,100575.44
2023-02-19T23:27:02.122Z,100592.81
2023-02-19T23:29:31.006Z,100590.34
2023-02-19T23:31:58.549Z,100608.41
2023-02-19T23:34:25.165Z,100603.63
2023-02-19T23:36:52.092Z,100612.16
2023-02-19T23:39:21.284Z,100612.69
2023-02-19T23:41:56.719Z,100606.66
2023-02-19T23:44:23.767Z,100620.06
2023-02-19T23:46:53.256Z,100619.38
2023-02-19T23:49:20.042Z,100628.91
2023-02-19T23:51:49.128Z,100616.44
2023-02-19T23:54:18.177Z,100627.50
2023-02-19T23:56:47.367Z,100634.16
2023-02-19T23:59:14.278Z,100651.81
